createdAt,value
2022-09-12T00:00:53.502Z,24.50
2022-09-12T00:05:56.695Z,24.40
2022-09-12T00:10:59.847Z,24.40
2022-09-12T00:16:05.746Z,24.50
2022-09-12T00:21:08.894Z,24.50
2022-09-12T00:26:12.243Z,24.50
2022-09-12T00:31:19.320Z,24.50
2022-09-12T00:36:24.929Z,24.40
2022-09-12T00:41:31.606Z,24.40
2022-09-12T00:46:42.975Z,24.30
2022-09-12T00:51:53.862Z,24.30
2022-09-12T00:57:03.990Z,24.20
2022-09-12T01:02:09.639Z,24.30
2022-09-12T01:07:15.425Z,24.30
2022-09-12T01:12:19.640Z,24.40
2022-09-12T01:17:29.482Z,24.40
2022-09-12T01:23:03.653Z,24.50
2022-09-12T01:28:30.185Z,24.50
2022-09-12T01:33:55.902Z,24.60
2022-09-12T01:39:03.360Z,24.60
2022-09-12T01:44:14.996Z,24.60
2022-09-12T01:49:24.625Z,24.60
2022-09-12T01:54:34.837Z,24.60
2022-09-12T01:59:43.828Z,24.70
2022-09-12T02:04:54.317Z,24.80
2022-09-12T02:10:04.227Z,24.80
2022-09-12T02:15:11.402Z,24.90
2022-09-12T02:20:46.466Z,24.90
2022-09-12T02:25:47.301Z,24.80
2022-09-12T02:31:00.780Z,24.80
2022-09-12T02:36:14.441Z,24.70
2022-09-12T02:41:20.700Z,24.70
2022-09-12T02:46:28.520Z,24.80
2022-09-12T02:51:33.369Z,24.90
2022-09-12T02:56:36.918Z,25.10
2022-09-12T03:01:58.121Z,25.20
2022-09-12T03:07:13.990Z,25.30
2022-09-12T03:12:28.048Z,25.40
2022-09-12T03:17:42.384Z,25.50
2022-09-12T03:22:53.567Z,25.60
2022-09-12T03:28:00.780Z,25.70
2022-09-12T03:33:03.911Z,25.70
2022-09-12T03:38:09.112Z,25.80
2022-09-12T03:43:12.545Z,25.80
2022-09-12T03:48:15.709Z,25.80
2022-09-12T03:53:20.286Z,25.80
2022-09-12T03:58:23.629Z,25.80
2022-09-12T04:03:26.804Z,25.80
2022-09-12T04:08:31.401Z,25.80
2022-09-12T04:13:35.641Z,25.80
2022-09-12T04:18:38.952Z,25.80
2022-09-12T04:23:43.930Z,25.80
2022-09-12T04:28:47.865Z,25.80
2022-09-12T04:33:55.473Z,25.70
2022-09-12T04:39:01.415Z,25.80
2022-09-12T04:44:06.915Z,25.70
2022-09-12T04:49:10.138Z,25.70
2022-09-12T04:54:16.741Z,25.70
2022-09-12T04:59:22.142Z,25.70
2022-09-12T05:04:25.711Z,25.70
2022-09-12T05:09:30.258Z,25.70
2022-09-12T05:14:34.201Z,25.70
2022-09-12T05:19:37.804Z,25.60
2022-09-12T05:24:47.268Z,25.60
2022-09-12T05:29:53.134Z,25.60
2022-09-12T05:34:56.379Z,25.60
2022-09-12T05:40:01.465Z,25.70
2022-09-12T05:45:05.092Z,25.80
2022-09-12T05:50:11.001Z,25.80
2022-09-12T05:55:16.680Z,25.90
2022-09-12T06:00:20.719Z,25.90
2022-09-12T06:05:24.209Z,25.90
2022-09-12T06:10:29.121Z,25.90
2022-09-12T06:15:33.972Z,26.00
2022-09-12T06:20:38.065Z,26.00
2022-09-12T06:25:49.548Z,26.10
2022-09-12T06:30:53.003Z,26.10
2022-09-12T06:35:56.201Z,26.10
2022-09-12T06:41:01.659Z,26.10
2022-09-12T06:46:05.308Z,26.10
2022-09-12T06:51:12.956Z,26.10
2022-09-12T06:56:19.271Z,26.10
2022-09-12T07:01:24.235Z,26.10
2022-09-12T07:06:32.023Z,26.10
2022-09-12T07:11:38.236Z,26.00
2022-09-12T07:16:41.501Z,26.10
2022-09-12T07:21:45.544Z,26.10
2022-09-12T07:26:50.359Z,26.00
2022-09-12T07:31:53.548Z,26.00
2022-09-12T07:36:56.676Z,26.00
2022-09-12T07:42:01.636Z,25.90
2022-09-12T07:47:04.990Z,25.90
2022-09-12T07:52:08.264Z,25.90
2022-09-12T07:57:12.828Z,25.80
2022-09-12T08:02:17.518Z,25.80
2022-09-12T08:07:21.030Z,25.80
2022-09-12T08:12:25.730Z,25.80
2022-09-12T08:17:29.590Z,25.80
2022-09-12T08:22:32.885Z,25.90
2022-09-12T08:27:37.798Z,25.90
2022-09-12T08:32:41.000Z,26.00
2022-09-12T08:37:44.188Z,26.00
2022-09-12T08:42:59.187Z,26.00
2022-09-12T08:48:05.754Z,26.10
2022-09-12T08:53:15.638Z,26.20
2022-09-12T08:58:22.768Z,26.30
2022-09-12T09:03:49.224Z,26.40
2022-09-12T09:09:01.521Z,26.50
2022-09-12T09:14:41.952Z,26.60
2022-09-12T09:19:51.115Z,26.70
2022-09-12T09:25:03.508Z,26.90
2022-09-12T09:30:15.945Z,27.10
2022-09-12T09:35:23.765Z,27.30
2022-09-12T09:40:32.978Z,27.50
2022-09-12T09:45:39.209Z,27.60
2022-09-12T09:50:43.256Z,27.70
2022-09-12T09:55:47.388Z,27.80
2022-09-12T10:01:00.340Z,27.90
2022-09-12T10:06:08.297Z,27.90
2022-09-12T10:11:20.823Z,27.90
2022-09-12T10:16:27.928Z,27.90
2022-09-12T10:21:34.841Z,27.80
2022-09-12T10:26:41.509Z,27.80
2022-09-12T10:31:51.815Z,27.90
2022-09-12T10:36:59.996Z,27.80
2022-09-12T10:42:03.767Z,27.90
2022-09-12T10:47:24.361Z,28.10
2022-09-12T10:52:28.529Z,28.30
2022-09-12T10:57:58.989Z,28.60
2022-09-12T11:03:25.019Z,28.70
2022-09-12T11:08:40.627Z,28.90
2022-09-12T11:14:06.277Z,29.10
2022-09-12T11:19:38.785Z,29.20
2022-09-12T11:24:56.978Z,29.30
2022-09-12T11:30:03.382Z,29.30
2022-09-12T11:35:19.070Z,29.40
2022-09-12T11:40:30.146Z,29.50
2022-09-12T11:45:41.117Z,29.50
2022-09-12T11:50:45.815Z,29.50
2022-09-12T11:55:56.112Z,29.60
2022-09-12T12:01:09.871Z,29.70
2022-09-12T12:06:19.498Z,29.80
2022-09-12T12:11:31.882Z,30.00
2022-09-12T12:16:38.460Z,30.20
2022-09-12T12:21:44.460Z,30.30
2022-09-12T12:27:00.235Z,30.40
2022-09-12T12:32:27.230Z,30.40
2022-09-12T12:37:55.549Z,30.40
2022-09-12T12:43:04.704Z,30.40
2022-09-12T12:48:12.542Z,30.40
2022-09-12T12:53:24.949Z,30.40
2022-09-12T12:58:36.374Z,30.50
2022-09-12T13:03:44.852Z,30.50
2022-09-12T13:08:59.926Z,30.50
2022-09-12T13:14:07.095Z,30.50
2022-09-12T13:19:18.531Z,30.50
2022-09-12T13:24:24.756Z,30.50
2022-09-12T13:29:29.246Z,30.50
2022-09-12T13:34:35.776Z,30.40
2022-09-12T13:39:48.447Z,30.40
2022-09-12T13:44:55.458Z,30.40
2022-09-12T13:49:59.257Z,30.40
2022-09-12T13:55:09.102Z,30.30
2022-09-12T14:00:20.050Z,30.20
2022-09-12T14:05:27.376Z,30.20
2022-09-12T14:10:35.451Z,30.20
2022-09-12T14:15:39.335Z,30.20
2022-09-12T14:20:42.992Z,30.20
2022-09-12T14:25:48.084Z,30.20
2022-09-12T14:31:02.834Z,30.20
2022-09-12T14:36:12.770Z,30.20
2022-09-12T14:41:25.463Z,30.30
2022-09-12T14:46:34.555Z,30.20
2022-09-12T14:51:41.085Z,30.20
2022-09-12T14:56:55.665Z,30.20
2022-09-12T15:02:24.204Z,30.10
2022-09-12T15:07:34.855Z,30.10
2022-09-12T15:12:39.399Z,30.10
2022-09-12T15:17:42.941Z,30.10
2022-09-12T15:22:46.241Z,30.10
2022-09-12T15:27:52.220Z,30.10
2022-09-12T15:32:55.445Z,30.10
2022-09-12T15:37:58.638Z,30.10
2022-09-12T15:43:03.353Z,30.20
2022-09-12T15:48:06.908Z,30.20
2022-09-12T15:53:15.232Z,30.20
2022-09-12T15:58:20.164Z,30.30
2022-09-12T16:03:25.127Z,30.30
2022-09-12T16:08:29.116Z,30.40
2022-09-12T16:13:33.793Z,30.40
2022-09-12T16:18:37.078Z,30.40
2022-09-12T16:23:40.606Z,30.40
2022-09-12T16:28:45.482Z,30.40
2022-09-12T16:33:48.719Z,30.40
2022-09-12T16:38:53.099Z,30.40
2022-09-12T16:43:57.686Z,30.40
2022-09-12T16:49:00.903Z,30.50
2022-09-12T16:54:04.221Z,30.50
2022-09-12T16:59:09.789Z,30.50
2022-09-12T17:04:13.113Z,30.40
2022-09-12T17:09:18.739Z,30.20
2022-09-12T17:14:23.684Z,30.10
2022-09-12T17:19:29.883Z,29.90
2022-09-12T17:24:33.631Z,29.60
2022-09-12T17:29:38.824Z,29.40
2022-09-12T17:34:42.094Z,29.20
2022-09-12T17:39:45.326Z,29.00
2022-09-12T17:44:50.629Z,28.80
2022-09-12T17:50:05.175Z,28.60
2022-09-12T17:55:17.582Z,28.50
2022-09-12T18:00:42.698Z,28.30
2022-09-12T18:05:50.262Z,28.10
2022-09-12T18:10:54.121Z,27.90
2022-09-12T18:16:04.914Z,27.80
2022-09-12T18:21:11.386Z,27.60
2022-09-12T18:26:15.397Z,27.60
2022-09-12T18:31:22.733Z,27.60
2022-09-12T18:36:26.327Z,27.70
2022-09-12T18:41:30.209Z,27.80
2022-09-12T18:46:36.871Z,27.90
2022-09-12T18:51:42.137Z,28.00
2022-09-12T18:56:46.462Z,28.00
2022-09-12T19:01:51.407Z,28.10
2022-09-12T19:06:54.974Z,28.10
2022-09-12T19:11:58.548Z,28.00
2022-09-12T19:17:03.920Z,27.90
2022-09-12T19:22:07.520Z,27.70
2022-09-12T19:27:13.299Z,27.60
2022-09-12T19:32:17.903Z,27.40
2022-09-12T19:37:21.504Z,27.30
2022-09-12T19:42:24.898Z,27.10
2022-09-12T19:47:29.624Z,27.10
2022-09-12T19:52:32.970Z,26.90
2022-09-12T19:57:36.336Z,26.70
2022-09-12T20:02:41.360Z,26.70
2022-09-12T20:07:44.808Z,26.60
2022-09-12T20:12:48.133Z,26.50
2022-09-12T20:17:56.248Z,26.30
2022-09-12T20:22:59.559Z,26.20
2022-09-12T20:28:03.236Z,26.20
2022-09-12T20:33:07.854Z,26.00
2022-09-12T20:38:11.450Z,26.00
2022-09-12T20:43:14.814Z,26.00
2022-09-12T20:48:19.565Z,25.90
2022-09-12T20:53:22.977Z,25.80
2022-09-12T20:58:26.268Z,25.80
2022-09-12T21:03:30.902Z,25.80
2022-09-12T21:08:34.887Z,25.70
2022-09-12T21:13:38.367Z,25.60
2022-09-12T21:18:43.405Z,25.60
2022-09-12T21:23:46.673Z,25.50
2022-09-12T21:28:50.131Z,25.50
2022-09-12T21:33:55.179Z,25.40
2022-09-12T21:39:00.185Z,25.40
2022-09-12T21:44:04.216Z,25.40
2022-09-12T21:49:09.143Z,25.30
2022-09-12T21:54:12.559Z,25.30
2022-09-12T21:59:16.008Z,25.30
2022-09-12T22:04:20.929Z,25.20
2022-09-12T22:09:24.344Z,25.20
2022-09-12T22:14:27.635Z,25.10
2022-09-12T22:19:32.621Z,25.10
2022-09-12T22:24:35.952Z,25.10
2022-09-12T22:29:39.757Z,25.00
2022-09-12T22:34:44.593Z,25.00
2022-09-12T22:39:48.202Z,25.00
2022-09-12T22:44:51.566Z,24.90
2022-09-12T22:49:56.406Z,24.90
2022-09-12T22:54:59.759Z,24.90
2022-09-12T23:00:03.462Z,24.90
2022-09-12T23:05:09.526Z,24.90
2022-09-12T23:10:12.962Z,25.00
2022-09-12T23:15:16.508Z,25.00
2022-09-12T23:20:21.104Z,25.00
2022-09-12T23:25:26.314Z,25.00
2022-09-12T23:30:29.702Z,25.00
2022-09-12T23:35:34.275Z,25.00
2022-09-12T23:40:37.488Z,25.00
2022-09-12T23:45:40.655Z,25.00
2022-09-12T23:50:47.028Z,25.00
2022-09-12T23:55:50.685Z,24.90
